Terminal Aerodrome Forecast
Issued by NWS

Home | Current Version | Previous Version | Text Only | Print | Product List | Glossary On
Versions: 1 2 3 4 5 6 7 8 9 10 11 12 13 14 15
000
FTUS45 KRIW 291500 AAA
TAFCOD
TAF AMD
KCOD 291513Z 2915/3012 36007KT P6SM VCSH BKN012
      TEMPO 2915/2917 OVC006
     FM292100 13007KT P6SM SCT040 BKN060
     FM300300 18005KT P6SM SCT050 BKN080
     FM300900 20006KT P6SM SCT080
      AMD LTD TO CLD VIS AND WIND=

USA.gov is the U.S. government's official web portal to all federal, state and local government web resources and services.